Kirsten H — WY7979 — position and weather

sailwx.info

Track history (hours):
 
Tides and Currents Weather Stations Pressure Air Temp Water Temp Dewpoint Dewpoint Depression Visibility Wind Speed Wind Dir Waves Ship Positions

Kirsten H

More information available from US FCC via Universal Licensing System and Coast Guard Vessel Documentation Center.

Last reported at 2014-Aug-26 23:33 UTC. Time now 2014-Aug-31 02:39 UTC.
Position N 52°13' W 128°11'.

Length 22 m; draft 4.2 m.

Type: Tow > 200 m length. MMSI: 366623050.

Date/timePositionNaut miles runAvg speedWind from/ knotsBaromVisibWave heightAir tempDewpointWater temp
2014-Aug-26 23:33N 52°13' W 128°11'14 6.7
2014-Aug-26 21:30N 52°03' W 127°56'52 8.8
2014-Aug-26 15:33N 51°11' W 127°51'8 8.3
2014-Aug-26 14:32N 51°04' W 127°42'9 8.9
2014-Aug-26 13:34N 50°59' W 127°32'10 9.7
2014-Aug-26 12:33N 50°52' W 127°20'9 9.0
2014-Aug-26 11:33N 50°47' W 127°09'135 7.9
2014-Aug-25 18:28N 49°27' W 124°20'8 8.2
2014-Aug-25 17:34N 49°23' W 124°10'8 7.7
2014-Aug-25 16:32N 49°18' W 124°00'9 7.3
2014-Aug-25 15:21N 49°11' W 123°53'3 0.2
2014-Aug-24 23:12N 49°08' W 123°51'0 0.0
2014-Aug-24 20:12N 49°08' W 123°51'1 0.7
2014-Aug-24 18:23N 49°09' W 123°52'12 6.3
2014-Aug-24 16:33N 49°20' W 123°59'16 7.7
2014-Aug-24 14:31N 49°32' W 124°15'10 7.6
2014-Aug-24 13:12N 49°36' W 124°29'16 7.8
2014-Aug-24 11:11N 49°46' W 124°49'6 7.7
2014-Aug-24 10:23N 49°50' W 124°56'  
2014-Aug-19 20:17N 54°18' W 130°51'6 8.4
2014-Aug-19 19:32N 54°14' W 130°43'143 7.4
2014-Aug-19 00:08N 52°16' W 128°26'5 8.5
2014-Aug-18 23:29N 52°15' W 128°17'8 8.1
2014-Aug-18 22:34N 52°11' W 128°06'7 6.4
2014-Aug-18 21:27N 52°05' W 128°02'6 6.0
2014-Aug-18 20:30N 52°00' W 127°56'10 8.0
2014-Aug-18 19:12N 51°50' W 127°56'6 8.4
2014-Aug-18 18:31N 51°44' W 127°55'8 8.1
2014-Aug-18 17:31N 51°36' W 127°53'31 7.8
2014-Aug-18 13:34N 51°06' W 127°45'9 8.6
2014-Aug-18 12:34N 50°60' W 127°35'8 8.4
2014-Aug-18 11:34N 50°55' W 127°24'9 8.5
2014-Aug-18 10:32N 50°50' W 127°12'10 9.0
2014-Aug-18 09:28N 50°45' W 126°60'17 8.6
2014-Aug-18 07:32N 50°33' W 126°41'8 7.9
2014-Aug-18 06:32N 50°30' W 126°30'100 7.1
2014-Aug-17 16:32N 49°34' W 124°22'12 8.7
2014-Aug-17 15:06N 49°27' W 124°06'5 8.5
2014-Aug-17 14:34N 49°24' W 124°00'9 8.7
2014-Aug-17 13:32N 49°19' W 123°49'9 8.7
2014-Aug-17 12:33N 49°14' W 123°39'8 8.5
2014-Aug-17 11:34N 49°09' W 123°29'8 8.3
2014-Aug-17 10:33N 49°03' W 123°19'8 7.6
2014-Aug-17 09:34N 48°58' W 123°11'7 6.8
2014-Aug-17 08:34N 48°53' W 123°03'9 8.5
2014-Aug-17 07:33N 48°48' W 122°53'8 8.2
2014-Aug-17 06:34N 48°43' W 122°44'8 8.2
2014-Aug-17 05:33N 48°34' W 122°45'32 7.2
2014-Aug-17 01:06N 48°03' W 122°37'4 7.7
2014-Aug-17 00:34N 47°59' W 122°35'8 8.0
2014-Aug-16 23:34N 47°53' W 122°28'  
Track history (hours):
 
Tides and Currents Weather Stations Pressure Air Temp Water Temp Dewpoint Dewpoint Depression Visibility Wind Speed Wind Dir Waves Ship Positions

Kirsten H

More information available from US FCC via Universal Licensing System and Coast Guard Vessel Documentation Center.

Last reported at 2014-Aug-26 23:33 UTC. Time now 2014-Aug-31 02:39 UTC.
Position N 52°13' W 128°11'.

Length 22 m; draft 4.2 m.

Type: Tow > 200 m length. MMSI: 366623050.

Date/timePositionNaut miles runAvg speedWind from/ knotsBaromVisibWave heightAir tempDewpointWater temp
2014-Aug-26 23:33N 52°13' W 128°11'14 6.7
2014-Aug-26 21:30N 52°03' W 127°56'52 8.8
2014-Aug-26 15:33N 51°11' W 127°51'8 8.3
2014-Aug-26 14:32N 51°04' W 127°42'9 8.9
2014-Aug-26 13:34N 50°59' W 127°32'10 9.7
2014-Aug-26 12:33N 50°52' W 127°20'9 9.0
2014-Aug-26 11:33N 50°47' W 127°09'135 7.9
2014-Aug-25 18:28N 49°27' W 124°20'8 8.2
2014-Aug-25 17:34N 49°23' W 124°10'8 7.7
2014-Aug-25 16:32N 49°18' W 124°00'9 7.3
2014-Aug-25 15:21N 49°11' W 123°53'3 0.2
2014-Aug-24 23:12N 49°08' W 123°51'0 0.0
2014-Aug-24 20:12N 49°08' W 123°51'1 0.7
2014-Aug-24 18:23N 49°09' W 123°52'12 6.3
2014-Aug-24 16:33N 49°20' W 123°59'16 7.7
2014-Aug-24 14:31N 49°32' W 124°15'10 7.6
2014-Aug-24 13:12N 49°36' W 124°29'16 7.8
2014-Aug-24 11:11N 49°46' W 124°49'6 7.7
2014-Aug-24 10:23N 49°50' W 124°56'  
2014-Aug-19 20:17N 54°18' W 130°51'6 8.4
2014-Aug-19 19:32N 54°14' W 130°43'143 7.4
2014-Aug-19 00:08N 52°16' W 128°26'5 8.5
2014-Aug-18 23:29N 52°15' W 128°17'8 8.1
2014-Aug-18 22:34N 52°11' W 128°06'7 6.4
2014-Aug-18 21:27N 52°05' W 128°02'6 6.0
2014-Aug-18 20:30N 52°00' W 127°56'10 8.0
2014-Aug-18 19:12N 51°50' W 127°56'6 8.4
2014-Aug-18 18:31N 51°44' W 127°55'8 8.1
2014-Aug-18 17:31N 51°36' W 127°53'31 7.8
2014-Aug-18 13:34N 51°06' W 127°45'9 8.6
2014-Aug-18 12:34N 50°60' W 127°35'8 8.4
2014-Aug-18 11:34N 50°55' W 127°24'9 8.5
2014-Aug-18 10:32N 50°50' W 127°12'10 9.0
2014-Aug-18 09:28N 50°45' W 126°60'17 8.6
2014-Aug-18 07:32N 50°33' W 126°41'8 7.9
2014-Aug-18 06:32N 50°30' W 126°30'100 7.1
2014-Aug-17 16:32N 49°34' W 124°22'12 8.7
2014-Aug-17 15:06N 49°27' W 124°06'5 8.5
2014-Aug-17 14:34N 49°24' W 124°00'9 8.7
2014-Aug-17 13:32N 49°19' W 123°49'9 8.7
2014-Aug-17 12:33N 49°14' W 123°39'8 8.5
2014-Aug-17 11:34N 49°09' W 123°29'8 8.3
2014-Aug-17 10:33N 49°03' W 123°19'8 7.6
2014-Aug-17 09:34N 48°58' W 123°11'7 6.8
2014-Aug-17 08:34N 48°53' W 123°03'9 8.5
2014-Aug-17 07:33N 48°48' W 122°53'8 8.2
2014-Aug-17 06:34N 48°43' W 122°44'8 8.2
2014-Aug-17 05:33N 48°34' W 122°45'32 7.2
2014-Aug-17 01:06N 48°03' W 122°37'4 7.7
2014-Aug-17 00:34N 47°59' W 122°35'8 8.0
2014-Aug-16 23:34N 47°53' W 122°28'  

Dump ship's entire track history